createdAt,value
2022-12-31T15:46:44.271Z,21.92
2022-12-31T15:49:44.978Z,19.38
2022-12-31T15:52:57.924Z,26.95
2022-12-31T15:55:50.108Z,17.23
2022-12-31T15:58:37.472Z,21.10
2022-12-31T16:01:35.135Z,12.25
2022-12-31T16:04:30.232Z,9.10
2022-12-31T16:07:16.432Z,12.32
2022-12-31T16:10:06.703Z,14.02
2022-12-31T16:12:55.194Z,15.82
2022-12-31T16:15:40.892Z,10.30
2022-12-31T16:18:39.954Z,18.85
2022-12-31T16:21:34.353Z,8.75
2022-12-31T16:24:37.459Z,14.10
2022-12-31T16:27:30.864Z,19.38
2022-12-31T16:30:31.738Z,6.45
2022-12-31T16:33:17.017Z,8.85
2022-12-31T16:36:02.704Z,7.70
2022-12-31T16:38:51.980Z,15.35
2022-12-31T16:41:43.488Z,28.02
2022-12-31T16:47:33.952Z,11.63
2022-12-31T16:50:23.733Z,11.50
2022-12-31T16:53:18.346Z,10.52
2022-12-31T16:56:08.487Z,11.05
2022-12-31T16:59:35.508Z,16.25
2022-12-31T17:02:40.078Z,12.27
2022-12-31T17:05:28.155Z,18.00
2022-12-31T17:09:06.484Z,7.55
2022-12-31T17:11:59.190Z,13.00
2022-12-31T17:14:51.930Z,19.83
2022-12-31T17:17:37.657Z,15.18
2022-12-31T17:20:31.476Z,15.95
2022-12-31T17:23:31.203Z,10.38
2022-12-31T17:26:27.822Z,12.88
2022-12-31T17:29:26.201Z,8.57
2022-12-31T17:32:30.779Z,8.25
2022-12-31T17:35:41.724Z,10.30
2022-12-31T17:38:32.363Z,7.88
2022-12-31T17:41:26.291Z,5.82
2022-12-31T17:44:25.313Z,10.55
2022-12-31T17:47:13.044Z,8.48
2022-12-31T17:49:58.795Z,6.30
2022-12-31T17:52:44.798Z,6.05
2022-12-31T17:55:30.305Z,13.98
2022-12-31T17:58:29.805Z,8.23
2022-12-31T18:01:22.844Z,14.38
2022-12-31T18:04:14.797Z,5.95
2022-12-31T18:07:00.403Z,5.05
2022-12-31T18:09:45.832Z,6.88
2022-12-31T18:12:32.587Z,12.90
2022-12-31T18:15:23.118Z,4.68
2022-12-31T18:18:28.507Z,5.97
2022-12-31T18:21:29.354Z,12.75
2022-12-31T18:24:21.368Z,7.00
2022-12-31T18:27:20.057Z,9.18
2022-12-31T18:30:08.716Z,14.68
2022-12-31T18:32:54.581Z,12.30
2022-12-31T18:36:07.708Z,4.65
2022-12-31T18:38:46.474Z,9.48
2022-12-31T18:41:50.575Z,16.10
2022-12-31T18:44:35.978Z,11.38
2022-12-31T18:47:21.706Z,6.38
2022-12-31T18:50:09.790Z,9.90
2022-12-31T18:52:55.647Z,11.82
2022-12-31T18:55:58.645Z,6.05
2022-12-31T18:58:45.781Z,6.63
2022-12-31T19:01:38.456Z,9.18
2022-12-31T19:04:28.116Z,4.45
2022-12-31T19:07:14.014Z,4.85
2022-12-31T19:09:59.636Z,14.00
2022-12-31T19:12:45.670Z,6.07
2022-12-31T19:15:45.868Z,8.40
2022-12-31T19:18:31.829Z,12.52
2022-12-31T19:21:22.205Z,7.95
2022-12-31T19:24:26.312Z,9.73
2022-12-31T19:27:12.752Z,11.18
2022-12-31T19:29:58.343Z,13.10
2022-12-31T19:32:43.920Z,10.00
2022-12-31T19:35:29.455Z,8.55
2022-12-31T19:38:26.762Z,5.97
2022-12-31T19:41:19.553Z,5.03
2022-12-31T19:44:05.420Z,6.20
2022-12-31T19:46:50.913Z,4.38
2022-12-31T19:49:36.247Z,4.03
2022-12-31T19:52:21.665Z,4.75
2022-12-31T19:55:08.725Z,4.28
2022-12-31T19:57:54.496Z,3.92
2022-12-31T20:00:39.694Z,3.92
2022-12-31T20:03:25.794Z,6.70
2022-12-31T20:06:11.924Z,8.00
2022-12-31T20:08:57.273Z,3.45
2022-12-31T20:11:42.768Z,16.63
2022-12-31T20:14:28.356Z,24.25
2022-12-31T20:17:13.776Z,12.52
2022-12-31T20:19:59.599Z,71.18
2022-12-31T20:22:45.142Z,20.65
2022-12-31T20:25:30.407Z,36.17
2022-12-31T20:28:15.789Z,17.17
2022-12-31T20:31:09.743Z,15.23
2022-12-31T20:33:55.866Z,10.73
2022-12-31T20:36:41.729Z,9.68
2022-12-31T20:39:27.069Z,10.95
2022-12-31T20:42:12.444Z,18.85
2022-12-31T20:44:57.962Z,13.45
2022-12-31T20:47:43.241Z,7.25
2022-12-31T20:50:28.713Z,14.77
2022-12-31T20:53:13.933Z,286.63
2022-12-31T20:56:08.800Z,198.38
2022-12-31T20:58:54.578Z,240.07
2022-12-31T21:02:19.579Z,96.47
2022-12-31T21:04:46.411Z,61.83
2022-12-31T21:07:31.885Z,57.13
2022-12-31T21:10:17.448Z,108.10
2022-12-31T21:13:02.747Z,43.58
2022-12-31T21:15:55.516Z,32.88
2022-12-31T21:18:41.141Z,28.50
2022-12-31T21:21:26.643Z,24.02
2022-12-31T21:24:12.195Z,25.33
2022-12-31T21:27:00.423Z,16.25
2022-12-31T21:30:17.148Z,14.90
2022-12-31T21:32:51.746Z,13.15
2022-12-31T21:35:44.421Z,10.27
2022-12-31T21:38:32.575Z,14.63
2022-12-31T21:41:18.104Z,6.93
2022-12-31T21:44:03.951Z,7.80
2022-12-31T21:47:33.903Z,7.90
2022-12-31T21:50:07.619Z,9.20
2022-12-31T21:52:53.160Z,8.20
2022-12-31T21:55:39.067Z,7.10
2022-12-31T21:58:27.250Z,8.75
2022-12-31T22:01:20.997Z,6.10
2022-12-31T22:04:12.932Z,6.80
2022-12-31T22:07:08.030Z,7.03
2022-12-31T22:09:56.256Z,7.60
2022-12-31T22:12:42.043Z,12.85
2022-12-31T22:15:27.462Z,8.95
2022-12-31T22:18:15.662Z,5.78
2022-12-31T22:21:21.435Z,8.90
2022-12-31T22:24:08.339Z,8.57
2022-12-31T22:26:53.920Z,8.02
2022-12-31T22:29:39.593Z,7.80
2022-12-31T22:32:28.145Z,11.30
2022-12-31T22:35:18.007Z,8.77
2022-12-31T22:38:12.179Z,7.80
2022-12-31T22:41:17.370Z,6.25
2022-12-31T22:44:04.757Z,8.80
2022-12-31T22:46:50.943Z,9.93
2022-12-31T22:49:36.368Z,7.10
2022-12-31T22:52:22.001Z,6.95
2022-12-31T22:55:08.561Z,5.38
2022-12-31T22:57:54.164Z,8.55
2022-12-31T23:00:41.768Z,8.57
2022-12-31T23:03:27.209Z,6.60
2022-12-31T23:06:14.080Z,8.73
2022-12-31T23:09:00.099Z,5.45
2022-12-31T23:11:45.827Z,8.63
2022-12-31T23:14:31.403Z,5.53
2022-12-31T23:17:30.213Z,10.00
2022-12-31T23:20:22.503Z,8.63
2022-12-31T23:23:16.145Z,5.43
2022-12-31T23:26:02.093Z,6.75
2022-12-31T23:28:47.598Z,7.38
2022-12-31T23:31:33.214Z,10.68
2022-12-31T23:34:19.245Z,7.88
2022-12-31T23:37:04.868Z,12.45
2022-12-31T23:39:50.254Z,8.30
2022-12-31T23:42:35.798Z,14.75
2022-12-31T23:45:21.185Z,5.50
2022-12-31T23:48:06.703Z,10.00
2022-12-31T23:50:54.311Z,10.48
2022-12-31T23:53:40.119Z,6.93
2022-12-31T23:56:25.867Z,7.38
2022-12-31T23:59:12.447Z,8.82
